createdAt,value
2024-01-25T00:03:04.798Z,101015.63
2024-01-25T00:07:10.141Z,101043.63
2024-01-25T00:11:11.765Z,101037.88
2024-01-25T00:15:14.092Z,101066.38
2024-01-25T00:19:15.682Z,101058.13
2024-01-25T00:23:17.311Z,101046.53
2024-01-25T00:27:18.808Z,101040.59
2024-01-25T00:31:20.470Z,101044.63
2024-01-25T00:35:22.419Z,101064.81
2024-01-25T00:39:24.492Z,101068.25
2024-01-25T00:43:26.410Z,101074.84
2024-01-25T00:47:28.299Z,101077.88
2024-01-25T00:51:30.238Z,101077.09
2024-01-25T00:55:32.203Z,101114.19
2024-01-25T00:59:36.313Z,101100.66
2024-01-25T01:03:38.541Z,101098.34
2024-01-25T01:07:43.934Z,101098.75
2024-01-25T01:11:45.707Z,101091.72
2024-01-25T01:15:47.543Z,101091.06
2024-01-25T01:19:49.132Z,101095.19
2024-01-25T01:23:52.490Z,101101.59
2024-01-25T01:27:54.137Z,101107.19
2024-01-25T01:31:55.651Z,101096.75
2024-01-25T01:35:57.212Z,101080.91
2024-01-25T01:40:00.099Z,101090.22
2024-01-25T01:44:02.466Z,101112.19
2024-01-25T01:48:04.906Z,101144.41
2024-01-25T01:52:08.099Z,101107.97
2024-01-25T01:56:10.910Z,101111.56
2024-01-25T02:00:15.817Z,101120.22
2024-01-25T02:04:17.417Z,101121.50
2024-01-25T02:08:19.063Z,101120.38
2024-01-25T02:12:20.852Z,101131.31
2024-01-25T02:16:22.526Z,101123.72
2024-01-25T02:20:24.246Z,101143.72
2024-01-25T02:24:25.709Z,101142.72
2024-01-25T02:28:27.264Z,101118.72
2024-01-25T02:32:28.882Z,101140.06
2024-01-25T02:36:30.527Z,101121.97
2024-01-25T02:40:32.069Z,101117.34
2024-01-25T02:44:33.677Z,101110.44
2024-01-25T02:48:36.047Z,101121.41
2024-01-25T02:52:37.651Z,101117.31
2024-01-25T02:56:39.170Z,101124.56
2024-01-25T03:00:40.773Z,101121.66
2024-01-25T03:04:42.449Z,101126.25
2024-01-25T03:08:44.002Z,101142.06
2024-01-25T03:12:45.925Z,101133.53
2024-01-25T03:16:47.470Z,101132.25
2024-01-25T03:20:51.924Z,101149.31
2024-01-25T03:24:53.890Z,101162.84
2024-01-25T03:28:55.468Z,101173.91
2024-01-25T03:32:57.088Z,101171.97
2024-01-25T03:36:58.572Z,101182.28
2024-01-25T03:41:00.228Z,101166.56
2024-01-25T03:45:01.714Z,101159.81
2024-01-25T03:49:03.408Z,101180.31
2024-01-25T03:53:07.311Z,101168.94
2024-01-25T03:57:08.860Z,101154.25
2024-01-25T04:01:10.546Z,101144.22
2024-01-25T04:05:12.291Z,101186.47
2024-01-25T04:09:14.504Z,101151.16
2024-01-25T04:13:16.193Z,101168.59
2024-01-25T04:17:17.722Z,101161.03
2024-01-25T04:21:19.454Z,101171.47
2024-01-25T04:25:21.058Z,101171.47
2024-01-25T04:29:22.764Z,101196.78
2024-01-25T04:33:24.753Z,101185.91
2024-01-25T04:37:26.318Z,101203.56
2024-01-25T04:41:27.806Z,101199.97
2024-01-25T04:45:29.338Z,101189.28
2024-01-25T04:49:31.254Z,101224.47
2024-01-25T04:53:33.068Z,101204.03
2024-01-25T04:57:34.562Z,101205.88
2024-01-25T05:01:36.217Z,101223.88
2024-01-25T05:05:37.785Z,101223.59
2024-01-25T05:09:39.349Z,101236.78
2024-01-25T05:13:40.837Z,101242.72
2024-01-25T05:17:42.441Z,101245.53
2024-01-25T05:21:45.177Z,101253.66
2024-01-25T05:25:46.815Z,101260.72
2024-01-25T05:29:48.320Z,101263.13
2024-01-25T05:33:49.934Z,101275.03
2024-01-25T05:37:52.005Z,101289.59
2024-01-25T05:41:53.505Z,101294.31
2024-01-25T05:45:55.194Z,101317.25
2024-01-25T05:49:58.609Z,101324.97
2024-01-25T05:54:00.160Z,101319.38
2024-01-25T05:58:01.694Z,101335.63
2024-01-25T06:02:03.797Z,101323.78
2024-01-25T06:06:06.489Z,101321.50
2024-01-25T06:10:08.856Z,101326.81
2024-01-25T06:14:10.840Z,101325.13
2024-01-25T06:18:12.455Z,101335.38
2024-01-25T06:22:14.113Z,101353.66
2024-01-25T06:26:15.697Z,101346.25
2024-01-25T06:30:17.627Z,101356.50
2024-01-25T06:34:19.299Z,101366.53
2024-01-25T06:38:20.869Z,101370.25
2024-01-25T06:42:22.950Z,101378.28
2024-01-25T06:46:24.675Z,101372.41
2024-01-25T06:50:26.426Z,101362.13
2024-01-25T06:54:28.256Z,101383.84
2024-01-25T06:58:31.861Z,101394.09
2024-01-25T07:02:34.126Z,101400.19
2024-01-25T07:06:36.610Z,101420.59
2024-01-25T07:10:38.637Z,101411.97
2024-01-25T07:14:40.215Z,101417.84
2024-01-25T07:18:45.632Z,101431.13
2024-01-25T07:22:47.245Z,101433.13
2024-01-25T07:26:48.987Z,101435.44
2024-01-25T07:30:51.234Z,101491.09
2024-01-25T07:34:54.477Z,101475.03
2024-01-25T07:38:56.075Z,101471.38
2024-01-25T07:42:57.623Z,101481.13
2024-01-25T07:46:59.107Z,101480.94
2024-01-25T07:51:00.925Z,101475.16
2024-01-25T07:55:04.469Z,101476.16
2024-01-25T07:59:07.310Z,101494.81
2024-01-25T08:03:11.844Z,101495.09
2024-01-25T08:07:13.694Z,101510.91
2024-01-25T08:11:19.620Z,101526.13
2024-01-25T08:15:21.325Z,101525.88
2024-01-25T08:19:23.040Z,101532.22
2024-01-25T08:23:24.579Z,101541.25
2024-01-25T08:27:26.311Z,101537.47
2024-01-25T08:31:27.969Z,101552.44
2024-01-25T08:35:29.876Z,101539.78
2024-01-25T08:39:31.452Z,101563.22
2024-01-25T08:43:33.361Z,101571.53
2024-01-25T08:47:34.952Z,101567.97
2024-01-25T08:51:37.484Z,101572.34
2024-01-25T08:55:39.105Z,101571.16
2024-01-25T08:59:40.642Z,101574.38
2024-01-25T09:03:42.816Z,101569.41
2024-01-25T09:07:44.775Z,101578.53
2024-01-25T09:11:46.355Z,101586.13
2024-01-25T09:15:48.272Z,101583.09
2024-01-25T09:19:53.587Z,101597.91
2024-01-25T09:23:55.338Z,101605.94
2024-01-25T09:27:58.491Z,101604.81
2024-01-25T09:32:00.317Z,101605.41
2024-01-25T09:36:01.983Z,101610.41
2024-01-25T09:40:05.433Z,101615.59
2024-01-25T09:44:10.734Z,101609.81
2024-01-25T09:48:13.097Z,101629.16
2024-01-25T09:52:17.444Z,101643.56
2024-01-25T09:56:21.764Z,101652.19
2024-01-25T10:00:23.997Z,101638.84
2024-01-25T10:04:26.424Z,101648.25
2024-01-25T10:08:28.028Z,101651.47
2024-01-25T10:12:29.531Z,101651.66
2024-01-25T10:16:31.467Z,101663.16
2024-01-25T10:20:33.509Z,101657.84
2024-01-25T10:24:35.976Z,101671.72
2024-01-25T10:28:37.973Z,101673.53
2024-01-25T10:32:41.346Z,101663.59
2024-01-25T10:36:44.217Z,101658.47
2024-01-25T10:40:49.407Z,101670.44
2024-01-25T10:44:52.465Z,101679.19
2024-01-25T10:48:58.493Z,101688.88
2024-01-25T10:53:01.915Z,101673.03
2024-01-25T10:57:06.164Z,101691.03
2024-01-25T11:01:15.475Z,101682.06
2024-01-25T11:05:20.239Z,101690.00
2024-01-25T11:09:22.789Z,101693.78
2024-01-25T11:13:27.374Z,101676.03
2024-01-25T11:17:34.556Z,101680.47
2024-01-25T11:21:47.334Z,101670.72
2024-01-25T11:25:49.474Z,101685.75
2024-01-25T11:29:51.042Z,101683.97
2024-01-25T11:33:53.200Z,101687.41
2024-01-25T11:37:54.860Z,101690.03
2024-01-25T11:41:56.448Z,101687.84
2024-01-25T11:45:58.058Z,101696.44
2024-01-25T11:49:59.966Z,101695.13
2024-01-25T11:54:01.663Z,101697.03
2024-01-25T11:58:03.555Z,101705.22
2024-01-25T12:02:05.508Z,101713.03
2024-01-25T12:06:10.406Z,101709.88
2024-01-25T12:10:20.552Z,101703.91
2024-01-25T12:14:22.124Z,101714.09
2024-01-25T12:18:23.811Z,101714.16
2024-01-25T12:22:28.480Z,101711.53
2024-01-25T12:26:35.488Z,101714.69
2024-01-25T12:30:37.171Z,101719.44
2024-01-25T12:34:40.808Z,101724.59
2024-01-25T12:38:42.490Z,101723.28
2024-01-25T12:42:44.199Z,101725.78
2024-01-25T12:46:45.763Z,101714.53
2024-01-25T12:50:47.528Z,101724.88
2024-01-25T12:54:49.127Z,101711.41
2024-01-25T12:58:50.891Z,101714.22
2024-01-25T13:02:55.410Z,101712.06
2024-01-25T13:06:57.200Z,101707.13
2024-01-25T13:10:58.723Z,101701.34
2024-01-25T13:15:00.830Z,101704.16
2024-01-25T13:19:02.877Z,101702.31
2024-01-25T13:23:04.686Z,101700.78
2024-01-25T13:27:06.569Z,101692.16
2024-01-25T13:31:08.166Z,101699.69
2024-01-25T13:35:15.398Z,101682.56
2024-01-25T13:39:16.939Z,101707.38
2024-01-25T13:43:19.530Z,101694.47
2024-01-25T13:47:21.203Z,101704.94
2024-01-25T13:51:23.068Z,101701.56
2024-01-25T13:55:24.714Z,101735.72
2024-01-25T13:59:26.840Z,101731.28
2024-01-25T14:03:28.511Z,101733.72
2024-01-25T14:07:30.043Z,101740.69
2024-01-25T14:11:32.509Z,101753.81
2024-01-25T14:15:34.444Z,101757.25
2024-01-25T14:19:37.164Z,101756.22
2024-01-25T14:23:38.874Z,101749.09
2024-01-25T14:27:40.900Z,101752.44
2024-01-25T14:31:42.772Z,101750.00
2024-01-25T14:35:44.790Z,101750.53
2024-01-25T14:39:56.597Z,101754.47
2024-01-25T14:44:08.626Z,101766.06
2024-01-25T14:48:10.130Z,101771.72
2024-01-25T14:52:11.612Z,101769.88
2024-01-25T14:56:13.816Z,101777.53
2024-01-25T15:00:20.599Z,101778.56
2024-01-25T15:04:22.222Z,101779.31
2024-01-25T15:08:23.691Z,101777.69
2024-01-25T15:12:25.246Z,101774.34
2024-01-25T15:16:26.700Z,101780.25
2024-01-25T15:20:29.444Z,101801.97
2024-01-25T15:24:33.068Z,101802.78
2024-01-25T15:28:36.227Z,101807.19
2024-01-25T15:32:39.489Z,101810.69
2024-01-25T15:36:44.877Z,101817.00
2024-01-25T15:40:47.321Z,101823.19
2024-01-25T15:44:48.819Z,101826.16
2024-01-25T15:48:52.840Z,101833.03
2024-01-25T15:52:57.536Z,101834.84
2024-01-25T15:57:01.713Z,101846.94
2024-01-25T16:01:03.560Z,101847.13
2024-01-25T16:05:11.123Z,101849.47
2024-01-25T16:09:13.288Z,101864.16
2024-01-25T16:13:15.116Z,101863.69
2024-01-25T16:17:16.707Z,101872.44
2024-01-25T16:21:21.264Z,101861.88
2024-01-25T16:25:23.636Z,101877.34
2024-01-25T16:29:25.339Z,101874.44
2024-01-25T16:33:28.072Z,101873.72
2024-01-25T16:37:29.786Z,101874.00
2024-01-25T16:41:31.713Z,101875.00
2024-01-25T16:45:35.051Z,101882.13
2024-01-25T16:49:39.030Z,101884.41
2024-01-25T16:53:40.835Z,101888.31
2024-01-25T16:57:42.493Z,101890.91
2024-01-25T17:01:44.314Z,101898.06
2024-01-25T17:05:49.493Z,101900.75
2024-01-25T17:09:53.080Z,101906.75
2024-01-25T17:13:55.057Z,101908.25
2024-01-25T17:17:56.790Z,101903.31
2024-01-25T17:21:58.798Z,101912.44
2024-01-25T17:26:00.765Z,101918.78
2024-01-25T17:30:05.242Z,101920.88
2024-01-25T17:34:07.282Z,101920.19
2024-01-25T17:38:09.468Z,101921.09
2024-01-25T17:42:11.361Z,101927.34
2024-01-25T17:46:13.870Z,101932.44
2024-01-25T17:50:16.026Z,101941.75
2024-01-25T17:54:18.151Z,101945.38
2024-01-25T17:58:19.714Z,101943.69
2024-01-25T18:02:21.319Z,101948.22
2024-01-25T18:06:22.933Z,101951.69
2024-01-25T18:10:24.773Z,101951.13
2024-01-25T18:14:26.289Z,101959.34
2024-01-25T18:18:27.808Z,101953.28
2024-01-25T18:22:30.237Z,101964.81
2024-01-25T18:26:31.984Z,101959.06
2024-01-25T18:30:33.459Z,101956.06
2024-01-25T18:34:35.324Z,101964.41
2024-01-25T18:38:37.060Z,101962.81
2024-01-25T18:42:38.687Z,101963.28
2024-01-25T18:46:40.269Z,101971.16
2024-01-25T18:50:42.217Z,101965.41
2024-01-25T18:54:44.271Z,101974.69
2024-01-25T18:58:46.305Z,101967.22
2024-01-25T19:02:48.798Z,101970.63
2024-01-25T19:06:55.188Z,101974.31
2024-01-25T19:10:57.307Z,101971.50
2024-01-25T19:15:04.350Z,101961.97
2024-01-25T19:19:06.036Z,101956.00
2024-01-25T19:23:07.820Z,101963.13
2024-01-25T19:27:09.501Z,101962.59
2024-01-25T19:31:12.057Z,101969.16
2024-01-25T19:35:14.071Z,101969.81
2024-01-25T19:39:16.476Z,101970.38
2024-01-25T19:43:19.449Z,101981.34
2024-01-25T19:47:21.036Z,101989.03
2024-01-25T19:51:22.539Z,101989.69
2024-01-25T19:55:24.542Z,101991.72
2024-01-25T19:59:26.393Z,101992.28
2024-01-25T20:03:28.741Z,101984.97
2024-01-25T20:07:30.908Z,101998.25
2024-01-25T20:11:32.628Z,101988.22
2024-01-25T20:15:34.385Z,101981.03
2024-01-25T20:19:36.518Z,101978.41
2024-01-25T20:23:38.085Z,101973.47
2024-01-25T20:27:40.277Z,101966.59
2024-01-25T20:31:41.827Z,101970.81
2024-01-25T20:35:43.340Z,101984.50
2024-01-25T20:39:44.863Z,101977.78
2024-01-25T20:43:46.566Z,101977.44
2024-01-25T20:47:48.280Z,101970.50
2024-01-25T20:51:49.783Z,101970.44
2024-01-25T20:55:51.878Z,101969.94
2024-01-25T20:59:53.669Z,101971.22
2024-01-25T21:03:56.111Z,101969.50
2024-01-25T21:07:58.134Z,101970.94
2024-01-25T21:11:59.898Z,101978.56
2024-01-25T21:16:02.550Z,101970.50
2024-01-25T21:20:05.988Z,101963.16
2024-01-25T21:24:07.758Z,101963.44
2024-01-25T21:28:09.249Z,101962.84
2024-01-25T21:32:11.099Z,101965.59
2024-01-25T21:36:12.851Z,101958.31
2024-01-25T21:40:14.384Z,101970.56
2024-01-25T21:44:15.917Z,101969.63
2024-01-25T21:48:17.628Z,101968.13
2024-01-25T21:52:22.358Z,101969.00
2024-01-25T21:56:24.228Z,101965.63
2024-01-25T22:00:26.485Z,101961.03
2024-01-25T22:04:28.114Z,101961.34
2024-01-25T22:08:29.801Z,101956.47
2024-01-25T22:12:32.375Z,101964.41
2024-01-25T22:16:33.924Z,101962.44
2024-01-25T22:20:35.393Z,101966.16
2024-01-25T22:24:36.980Z,101962.59
2024-01-25T22:28:38.475Z,101967.78
2024-01-25T22:32:40.112Z,101970.34
2024-01-25T22:36:41.601Z,101972.63
2024-01-25T22:40:43.436Z,101966.47
2024-01-25T22:44:44.889Z,101974.69
2024-01-25T22:48:46.478Z,101979.78
2024-01-25T22:52:48.085Z,101982.56
2024-01-25T22:56:49.911Z,101979.44
2024-01-25T23:00:51.766Z,101983.66
2024-01-25T23:04:53.776Z,101989.53
2024-01-25T23:08:55.707Z,101983.84
2024-01-25T23:12:57.528Z,101987.88
2024-01-25T23:16:59.121Z,101989.31
2024-01-25T23:21:00.919Z,101986.91
2024-01-25T23:25:03.280Z,101983.50
2024-01-25T23:29:04.979Z,101988.31
2024-01-25T23:33:06.516Z,101983.97
2024-01-25T23:37:08.097Z,101983.94
2024-01-25T23:41:09.554Z,101993.00
2024-01-25T23:45:12.538Z,101988.63
2024-01-25T23:49:16.672Z,101982.50
2024-01-25T23:53:18.783Z,101984.41
2024-01-25T23:57:20.675Z,101986.00
